sensor_id;sensor_type;location;lat;lon;timestamp;P1;durP1;ratioP1;P2;durP2;ratioP2
61638;SDS011;47544;52.484;4.658;2024-01-27T00:00:07;13.40;;;2.00;;
61638;SDS011;47544;52.484;4.658;2024-01-27T00:00:21;13.55;;;2.03;;
61638;SDS011;47544;52.484;4.658;2024-01-27T00:00:32;15.87;;;2.30;;
61638;SDS011;47544;52.484;4.658;2024-01-27T00:00:43;14.52;;;2.40;;
61638;SDS011;47544;52.484;4.658;2024-01-27T00:00:54;14.02;;;2.58;;
61638;SDS011;47544;52.484;4.658;2024-01-27T00:01:06;11.60;;;2.22;;
61638;SDS011;47544;52.484;4.658;2024-01-27T00:01:17;11.13;;;1.92;;
61638;SDS011;47544;52.484;4.658;2024-01-27T00:01:28;11.70;;;1.83;;
61638;SDS011;47544;52.484;4.658;2024-01-27T00:01:38;11.93;;;1.90;;
61638;SDS011;47544;52.484;4.658;2024-01-27T00:01:49;11.10;;;1.90;;
61638;SDS011;47544;52.484;4.658;2024-01-27T00:02:03;11.98;;;2.15;;
61638;SDS011;47544;52.484;4.658;2024-01-27T00:02:14;13.52;;;2.13;;
61638;SDS011;47544;52.484;4.658;2024-01-27T00:02:25;11.63;;;2.28;;
61638;SDS011;47544;52.484;4.658;2024-01-27T00:02:36;10.52;;;1.98;;
61638;SDS011;47544;52.484;4.658;2024-01-27T00:02:48;11.77;;;1.88;;
61638;SDS011;47544;52.484;4.658;2024-01-27T00:02:59;15.32;;;2.22;;
61638;SDS011;47544;52.484;4.658;2024-01-27T00:03:10;14.97;;;2.10;;
61638;SDS011;47544;52.484;4.658;2024-01-27T00:03:21;14.75;;;2.40;;
61638;SDS011;47544;52.484;4.658;2024-01-27T00:03:32;14.60;;;2.10;;
61638;SDS011;47544;52.484;4.658;2024-01-27T00:03:43;14.77;;;2.10;;
61638;SDS011;47544;52.484;4.658;2024-01-27T00:03:54;13.32;;;1.70;;
61638;SDS011;47544;52.484;4.658;2024-01-27T00:04:05;10.45;;;1.65;;
61638;SDS011;47544;52.484;4.658;2024-01-27T00:04:16;10.27;;;1.80;;
61638;SDS011;47544;52.484;4.658;2024-01-27T00:04:28;12.20;;;2.20;;
61638;SDS011;47544;52.484;4.658;2024-01-27T00:04:39;11.73;;;1.95;;
61638;SDS011;47544;52.484;4.658;2024-01-27T00:04:50;11.30;;;1.80;;
61638;SDS011;47544;52.484;4.658;2024-01-27T00:05:01;11.60;;;2.05;;
61638;SDS011;47544;52.484;4.658;2024-01-27T00:05:12;12.55;;;2.33;;
61638;SDS011;47544;52.484;4.658;2024-01-27T00:05:24;13.50;;;2.22;;
61638;SDS011;47544;52.484;4.658;2024-01-27T00:05:35;13.25;;;2.15;;
61638;SDS011;47544;52.484;4.658;2024-01-27T00:05:46;12.20;;;2.15;;
61638;SDS011;47544;52.484;4.658;2024-01-27T00:05:56;13.67;;;2.10;;
61638;SDS011;47544;52.484;4.658;2024-01-27T00:06:09;12.85;;;2.30;;
61638;SDS011;47544;52.484;4.658;2024-01-27T00:06:20;12.80;;;2.30;;
61638;SDS011;47544;52.484;4.658;2024-01-27T00:06:31;11.30;;;2.22;;
61638;SDS011;47544;52.484;4.658;2024-01-27T00:06:42;14.30;;;2.22;;
61638;SDS011;47544;52.484;4.658;2024-01-27T00:06:54;15.43;;;2.38;;
61638;SDS011;47544;52.484;4.658;2024-01-27T00:07:05;15.77;;;2.88;;
61638;SDS011;47544;52.484;4.658;2024-01-27T00:07:16;12.95;;;2.92;;
61638;SDS011;47544;52.484;4.658;2024-01-27T00:07:27;12.45;;;2.65;;
61638;SDS011;47544;52.484;4.658;2024-01-27T00:07:38;13.48;;;2.35;;
61638;SDS011;47544;52.484;4.658;2024-01-27T00:07:50;13.27;;;2.13;;
61638;SDS011;47544;52.484;4.658;2024-01-27T00:08:09;15.00;;;2.35;;
61638;SDS011;47544;52.484;4.658;2024-01-27T00:08:20;16.88;;;2.50;;
61638;SDS011;47544;52.484;4.658;2024-01-27T00:08:32;17.77;;;2.40;;
61638;SDS011;47544;52.484;4.658;2024-01-27T00:08:43;16.33;;;2.30;;
61638;SDS011;47544;52.484;4.658;2024-01-27T00:08:54;15.52;;;2.38;;
61638;SDS011;47544;52.484;4.658;2024-01-27T00:09:05;14.27;;;2.15;;
61638;SDS011;47544;52.484;4.658;2024-01-27T00:09:16;14.52;;;2.03;;
61638;SDS011;47544;52.484;4.658;2024-01-27T00:09:27;14.37;;;2.07;;
61638;SDS011;47544;52.484;4.658;2024-01-27T00:09:38;14.45;;;2.30;;
61638;SDS011;47544;52.484;4.658;2024-01-27T00:09:50;14.38;;;2.08;;
61638;SDS011;47544;52.484;4.658;2024-01-27T00:10:02;12.75;;;1.67;;
61638;SDS011;47544;52.484;4.658;2024-01-27T00:10:14;9.07;;;1.23;;
61638;SDS011;47544;52.484;4.658;2024-01-27T00:10:25;9.07;;;1.23;;
61638;SDS011;47544;52.484;4.658;2024-01-27T00:10:36;12.77;;;1.65;;
61638;SDS011;47544;52.484;4.658;2024-01-27T00:10:48;13.88;;;1.65;;
61638;SDS011;47544;52.484;4.658;2024-01-27T00:10:59;11.63;;;1.58;;
61638;SDS011;47544;52.484;4.658;2024-01-27T00:11:10;11.15;;;1.70;;
61638;SDS011;47544;52.484;4.658;2024-01-27T00:11:23;11.27;;;1.83;;
61638;SDS011;47544;52.484;4.658;2024-01-27T00:11:35;9.40;;;1.55;;
61638;SDS011;47544;52.484;4.658;2024-01-27T00:11:46;10.52;;;1.30;;
61638;SDS011;47544;52.484;4.658;2024-01-27T00:11:57;9.45;;;1.33;;
61638;SDS011;47544;52.484;4.658;2024-01-27T00:12:09;12.07;;;1.55;;
61638;SDS011;47544;52.484;4.658;2024-01-27T00:12:20;10.55;;;1.65;;
61638;SDS011;47544;52.484;4.658;2024-01-27T00:12:31;10.88;;;1.70;;
61638;SDS011;47544;52.484;4.658;2024-01-27T00:12:42;13.20;;;1.95;;
61638;SDS011;47544;52.484;4.658;2024-01-27T00:12:53;15.93;;;2.53;;
61638;SDS011;47544;52.484;4.658;2024-01-27T00:13:03;15.98;;;2.08;;
61638;SDS011;47544;52.484;4.658;2024-01-27T00:13:14;13.60;;;1.83;;
61638;SDS011;47544;52.484;4.658;2024-01-27T00:13:25;9.82;;;1.33;;
61638;SDS011;47544;52.484;4.658;2024-01-27T00:13:36;11.65;;;1.38;;
61638;SDS011;47544;52.484;4.658;2024-01-27T00:13:48;12.90;;;1.60;;
61638;SDS011;47544;52.484;4.658;2024-01-27T00:13:59;13.30;;;1.83;;
61638;SDS011;47544;52.484;4.658;2024-01-27T00:14:10;12.23;;;1.97;;
61638;SDS011;47544;52.484;4.658;2024-01-27T00:14:21;12.02;;;1.90;;
61638;SDS011;47544;52.484;4.658;2024-01-27T00:14:32;12.82;;;1.70;;
61638;SDS011;47544;52.484;4.658;2024-01-27T00:14:43;13.60;;;1.95;;
61638;SDS011;47544;52.484;4.658;2024-01-27T00:14:58;14.98;;;2.00;;
61638;SDS011;47544;52.484;4.658;2024-01-27T00:15:09;12.07;;;1.70;;
61638;SDS011;47544;52.484;4.658;2024-01-27T00:15:20;11.45;;;1.63;;
61638;SDS011;47544;52.484;4.658;2024-01-27T00:15:32;13.02;;;2.00;;
61638;SDS011;47544;52.484;4.658;2024-01-27T00:15:43;13.27;;;1.90;;
61638;SDS011;47544;52.484;4.658;2024-01-27T00:15:54;11.43;;;1.80;;
61638;SDS011;47544;52.484;4.658;2024-01-27T00:16:06;9.77;;;1.40;;
61638;SDS011;47544;52.484;4.658;2024-01-27T00:16:19;11.85;;;1.63;;
61638;SDS011;47544;52.484;4.658;2024-01-27T00:16:34;12.13;;;1.92;;
61638;SDS011;47544;52.484;4.658;2024-01-27T00:16:44;14.23;;;2.35;;
61638;SDS011;47544;52.484;4.658;2024-01-27T00:16:55;12.52;;;2.15;;
61638;SDS011;47544;52.484;4.658;2024-01-27T00:17:06;13.18;;;2.03;;
61638;SDS011;47544;52.484;4.658;2024-01-27T00:17:18;11.43;;;1.55;;
61638;SDS011;47544;52.484;4.658;2024-01-27T00:17:34;12.70;;;1.67;;
61638;SDS011;47544;52.484;4.658;2024-01-27T00:17:48;13.95;;;1.88;;
61638;SDS011;47544;52.484;4.658;2024-01-27T00:17:59;13.63;;;1.90;;
61638;SDS011;47544;52.484;4.658;2024-01-27T00:18:10;14.40;;;2.10;;
61638;SDS011;47544;52.484;4.658;2024-01-27T00:18:21;13.13;;;2.03;;
61638;SDS011;47544;52.484;4.658;2024-01-27T00:18:31;10.80;;;1.83;;
61638;SDS011;47544;52.484;4.658;2024-01-27T00:18:42;10.85;;;1.92;;
61638;SDS011;47544;52.484;4.658;2024-01-27T00:18:53;11.20;;;2.05;;
61638;SDS011;47544;52.484;4.658;2024-01-27T00:19:05;11.63;;;2.03;;
61638;SDS011;47544;52.484;4.658;2024-01-27T00:19:16;13.45;;;1.90;;
61638;SDS011;47544;52.484;4.658;2024-01-27T00:19:29;15.43;;;2.00;;
61638;SDS011;47544;52.484;4.658;2024-01-27T00:19:41;13.02;;;1.92;;
61638;SDS011;47544;52.484;4.658;2024-01-27T00:19:52;10.98;;;1.90;;
61638;SDS011;47544;52.484;4.658;2024-01-27T00:20:03;11.73;;;2.08;;
61638;SDS011;47544;52.484;4.658;2024-01-27T00:20:17;10.85;;;2.28;;
61638;SDS011;47544;52.484;4.658;2024-01-27T00:20:28;11.60;;;2.40;;
61638;SDS011;47544;52.484;4.658;2024-01-27T00:20:39;11.93;;;2.30;;
61638;SDS011;47544;52.484;4.658;2024-01-27T00:20:51;15.77;;;2.47;;
61638;SDS011;47544;52.484;4.658;2024-01-27T00:21:01;17.02;;;2.83;;
61638;SDS011;47544;52.484;4.658;2024-01-27T00:21:12;16.08;;;2.70;;
61638;SDS011;47544;52.484;4.658;2024-01-27T00:21:23;13.63;;;2.42;;
61638;SDS011;47544;52.484;4.658;2024-01-27T00:21:35;11.82;;;1.90;;
61638;SDS011;47544;52.484;4.658;2024-01-27T00:21:46;11.32;;;1.95;;
61638;SDS011;47544;52.484;4.658;2024-01-27T00:21:58;13.57;;;2.35;;
61638;SDS011;47544;52.484;4.658;2024-01-27T00:22:09;14.95;;;2.40;;
61638;SDS011;47544;52.484;4.658;2024-01-27T00:22:20;15.50;;;2.35;;
61638;SDS011;47544;52.484;4.658;2024-01-27T00:22:31;12.32;;;1.70;;
61638;SDS011;47544;52.484;4.658;2024-01-27T00:22:42;10.70;;;1.48;;
61638;SDS011;47544;52.484;4.658;2024-01-27T00:22:53;8.98;;;1.58;;
61638;SDS011;47544;52.484;4.658;2024-01-27T00:23:04;10.00;;;1.67;;
61638;SDS011;47544;52.484;4.658;2024-01-27T00:23:18;13.35;;;2.30;;
61638;SDS011;47544;52.484;4.658;2024-01-27T00:23:29;12.00;;;2.00;;
61638;SDS011;47544;52.484;4.658;2024-01-27T00:23:42;10.02;;;1.60;;
61638;SDS011;47544;52.484;4.658;2024-01-27T00:23:53;10.40;;;1.80;;
61638;SDS011;47544;52.484;4.658;2024-01-27T00:24:05;12.05;;;1.80;;
61638;SDS011;47544;52.484;4.658;2024-01-27T00:24:17;11.75;;;1.33;;
61638;SDS011;47544;52.484;4.658;2024-01-27T00:24:28;9.05;;;1.27;;
61638;SDS011;47544;52.484;4.658;2024-01-27T00:24:39;8.70;;;1.75;;
61638;SDS011;47544;52.484;4.658;2024-01-27T00:24:49;8.53;;;1.70;;
61638;SDS011;47544;52.484;4.658;2024-01-27T00:25:01;9.27;;;1.58;;
61638;SDS011;47544;52.484;4.658;2024-01-27T00:25:12;8.88;;;1.60;;
61638;SDS011;47544;52.484;4.658;2024-01-27T00:25:24;10.20;;;1.77;;
61638;SDS011;47544;52.484;4.658;2024-01-27T00:25:35;12.90;;;2.00;;
61638;SDS011;47544;52.484;4.658;2024-01-27T00:25:47;14.10;;;1.77;;
61638;SDS011;47544;52.484;4.658;2024-01-27T00:25:58;12.52;;;2.00;;
61638;SDS011;47544;52.484;4.658;2024-01-27T00:26:09;11.77;;;2.05;;
61638;SDS011;47544;52.484;4.658;2024-01-27T00:26:20;14.07;;;2.70;;
61638;SDS011;47544;52.484;4.658;2024-01-27T00:26:31;14.15;;;2.30;;
61638;SDS011;47544;52.484;4.658;2024-01-27T00:26:42;12.55;;;2.40;;
61638;SDS011;47544;52.484;4.658;2024-01-27T00:26:54;12.02;;;2.47;;
61638;SDS011;47544;52.484;4.658;2024-01-27T00:27:06;12.55;;;2.50;;
61638;SDS011;47544;52.484;4.658;2024-01-27T00:27:17;13.55;;;2.05;;
61638;SDS011;47544;52.484;4.658;2024-01-27T00:27:29;11.23;;;1.70;;
61638;SDS011;47544;52.484;4.658;2024-01-27T00:27:40;9.80;;;1.63;;
61638;SDS011;47544;52.484;4.658;2024-01-27T00:27:51;8.15;;;1.73;;
61638;SDS011;47544;52.484;4.658;2024-01-27T00:28:02;11.02;;;1.90;;
61638;SDS011;47544;52.484;4.658;2024-01-27T00:28:13;12.48;;;1.83;;
61638;SDS011;47544;52.484;4.658;2024-01-27T00:28:24;12.68;;;1.90;;
61638;SDS011;47544;52.484;4.658;2024-01-27T00:28:35;11.85;;;1.80;;
61638;SDS011;47544;52.484;4.658;2024-01-27T00:28:46;13.80;;;2.28;;
61638;SDS011;47544;52.484;4.658;2024-01-27T00:28:57;11.48;;;2.30;;
61638;SDS011;47544;52.484;4.658;2024-01-27T00:29:08;9.60;;;2.13;;
61638;SDS011;47544;52.484;4.658;2024-01-27T00:29:20;8.50;;;1.60;;
61638;SDS011;47544;52.484;4.658;2024-01-27T00:29:31;8.32;;;1.48;;
61638;SDS011;47544;52.484;4.658;2024-01-27T00:29:41;10.85;;;1.60;;
61638;SDS011;47544;52.484;4.658;2024-01-27T00:29:52;10.13;;;1.60;;
61638;SDS011;47544;52.484;4.658;2024-01-27T00:30:06;11.50;;;1.60;;
61638;SDS011;47544;52.484;4.658;2024-01-27T00:30:17;12.65;;;1.52;;
61638;SDS011;47544;52.484;4.658;2024-01-27T00:30:28;12.80;;;1.65;;
61638;SDS011;47544;52.484;4.658;2024-01-27T00:30:39;15.23;;;2.05;;
61638;SDS011;47544;52.484;4.658;2024-01-27T00:30:50;14.93;;;2.28;;
61638;SDS011;47544;52.484;4.658;2024-01-27T00:31:01;14.40;;;2.00;;
61638;SDS011;47544;52.484;4.658;2024-01-27T00:31:12;13.63;;;1.80;;
61638;SDS011;47544;52.484;4.658;2024-01-27T00:31:24;12.82;;;1.92;;
61638;SDS011;47544;52.484;4.658;2024-01-27T00:31:34;13.88;;;2.40;;
61638;SDS011;47544;52.484;4.658;2024-01-27T00:31:45;12.93;;;2.50;;
61638;SDS011;47544;52.484;4.658;2024-01-27T00:31:56;15.25;;;2.60;;
61638;SDS011;47544;52.484;4.658;2024-01-27T00:32:07;13.48;;;2.38;;
61638;SDS011;47544;52.484;4.658;2024-01-27T00:32:18;14.50;;;2.53;;
61638;SDS011;47544;52.484;4.658;2024-01-27T00:32:29;13.50;;;2.10;;
61638;SDS011;47544;52.484;4.658;2024-01-27T00:32:41;12.65;;;2.05;;
61638;SDS011;47544;52.484;4.658;2024-01-27T00:32:53;11.05;;;1.90;;
61638;SDS011;47544;52.484;4.658;2024-01-27T00:33:04;13.27;;;2.00;;
61638;SDS011;47544;52.484;4.658;2024-01-27T00:33:15;14.77;;;2.00;;
61638;SDS011;47544;52.484;4.658;2024-01-27T00:33:26;15.52;;;2.28;;
61638;SDS011;47544;52.484;4.658;2024-01-27T00:33:37;14.27;;;2.35;;
61638;SDS011;47544;52.484;4.658;2024-01-27T00:33:48;14.00;;;2.27;;
61638;SDS011;47544;52.484;4.658;2024-01-27T00:33:59;13.05;;;2.03;;
61638;SDS011;47544;52.484;4.658;2024-01-27T00:34:10;11.63;;;1.83;;
61638;SDS011;47544;52.484;4.658;2024-01-27T00:34:21;11.40;;;1.70;;
61638;SDS011;47544;52.484;4.658;2024-01-27T00:34:32;13.02;;;1.85;;
61638;SDS011;47544;52.484;4.658;2024-01-27T00:34:44;12.18;;;2.03;;
61638;SDS011;47544;52.484;4.658;2024-01-27T00:34:54;12.93;;;2.30;;
61638;SDS011;47544;52.484;4.658;2024-01-27T00:35:07;14.07;;;2.58;;
61638;SDS011;47544;52.484;4.658;2024-01-27T00:35:19;15.44;;;2.74;;
61638;SDS011;47544;52.484;4.658;2024-01-27T00:35:30;14.93;;;2.22;;
61638;SDS011;47544;52.484;4.658;2024-01-27T00:35:41;14.20;;;2.17;;
61638;SDS011;47544;52.484;4.658;2024-01-27T00:35:52;15.23;;;2.17;;
61638;SDS011;47544;52.484;4.658;2024-01-27T00:36:03;15.77;;;2.38;;
61638;SDS011;47544;52.484;4.658;2024-01-27T00:36:14;16.73;;;2.10;;
61638;SDS011;47544;52.484;4.658;2024-01-27T00:36:30;18.67;;;2.30;;
61638;SDS011;47544;52.484;4.658;2024-01-27T00:36:41;19.52;;;2.72;;
61638;SDS011;47544;52.484;4.658;2024-01-27T00:36:59;19.55;;;3.35;;
61638;SDS011;47544;52.484;4.658;2024-01-27T00:37:09;17.02;;;3.35;;
61638;SDS011;47544;52.484;4.658;2024-01-27T00:37:20;14.70;;;2.72;;
61638;SDS011;47544;52.484;4.658;2024-01-27T00:37:31;10.55;;;2.15;;
61638;SDS011;47544;52.484;4.658;2024-01-27T00:37:42;10.18;;;1.88;;
61638;SDS011;47544;52.484;4.658;2024-01-27T00:37:53;9.45;;;1.60;;
61638;SDS011;47544;52.484;4.658;2024-01-27T00:38:05;12.15;;;1.65;;
61638;SDS011;47544;52.484;4.658;2024-01-27T00:38:16;13.00;;;1.65;;
61638;SDS011;47544;52.484;4.658;2024-01-27T00:38:30;11.07;;;1.60;;
61638;SDS011;47544;52.484;4.658;2024-01-27T00:38:41;10.45;;;1.67;;
61638;SDS011;47544;52.484;4.658;2024-01-27T00:38:52;11.45;;;1.75;;
61638;SDS011;47544;52.484;4.658;2024-01-27T00:39:03;13.77;;;1.90;;
61638;SDS011;47544;52.484;4.658;2024-01-27T00:39:14;11.13;;;1.52;;
61638;SDS011;47544;52.484;4.658;2024-01-27T00:39:25;9.93;;;1.55;;
61638;SDS011;47544;52.484;4.658;2024-01-27T00:39:36;8.85;;;1.50;;
61638;SDS011;47544;52.484;4.658;2024-01-27T00:39:47;9.93;;;1.58;;
61638;SDS011;47544;52.484;4.658;2024-01-27T00:39:59;14.57;;;1.83;;
61638;SDS011;47544;52.484;4.658;2024-01-27T00:40:10;15.30;;;2.30;;
61638;SDS011;47544;52.484;4.658;2024-01-27T00:40:21;16.70;;;2.80;;
61638;SDS011;47544;52.484;4.658;2024-01-27T00:40:32;13.82;;;2.65;;
61638;SDS011;47544;52.484;4.658;2024-01-27T00:40:43;12.20;;;2.40;;
61638;SDS011;47544;52.484;4.658;2024-01-27T00:40:54;12.80;;;2.60;;
61638;SDS011;47544;52.484;4.658;2024-01-27T00:41:05;13.15;;;2.90;;
61638;SDS011;47544;52.484;4.658;2024-01-27T00:41:16;14.50;;;3.00;;
61638;SDS011;47544;52.484;4.658;2024-01-27T00:41:27;14.52;;;2.88;;
61638;SDS011;47544;52.484;4.658;2024-01-27T00:41:38;15.63;;;2.53;;
61638;SDS011;47544;52.484;4.658;2024-01-27T00:41:49;14.68;;;2.47;;
61638;SDS011;47544;52.484;4.658;2024-01-27T00:42:00;14.90;;;2.40;;
61638;SDS011;47544;52.484;4.658;2024-01-27T00:42:12;12.90;;;2.28;;
61638;SDS011;47544;52.484;4.658;2024-01-27T00:42:23;13.30;;;2.28;;
61638;SDS011;47544;52.484;4.658;2024-01-27T00:42:34;14.00;;;2.35;;
61638;SDS011;47544;52.484;4.658;2024-01-27T00:42:45;15.45;;;2.50;;
61638;SDS011;47544;52.484;4.658;2024-01-27T00:42:56;17.20;;;2.60;;
61638;SDS011;47544;52.484;4.658;2024-01-27T00:43:07;17.50;;;2.58;;
61638;SDS011;47544;52.484;4.658;2024-01-27T00:43:20;17.65;;;2.40;;
61638;SDS011;47544;52.484;4.658;2024-01-27T00:43:31;17.02;;;2.30;;
61638;SDS011;47544;52.484;4.658;2024-01-27T00:43:42;16.08;;;2.15;;
61638;SDS011;47544;52.484;4.658;2024-01-27T00:43:53;12.98;;;2.05;;
61638;SDS011;47544;52.484;4.658;2024-01-27T00:44:05;11.45;;;2.00;;
61638;SDS011;47544;52.484;4.658;2024-01-27T00:44:16;9.45;;;1.58;;
61638;SDS011;47544;52.484;4.658;2024-01-27T00:44:27;10.98;;;1.50;;
61638;SDS011;47544;52.484;4.658;2024-01-27T00:44:38;9.95;;;1.33;;
61638;SDS011;47544;52.484;4.658;2024-01-27T00:44:49;9.10;;;1.40;;
61638;SDS011;47544;52.484;4.658;2024-01-27T00:45:00;7.47;;;1.20;;
61638;SDS011;47544;52.484;4.658;2024-01-27T00:45:12;8.88;;;1.40;;
61638;SDS011;47544;52.484;4.658;2024-01-27T00:45:23;13.82;;;2.20;;
61638;SDS011;47544;52.484;4.658;2024-01-27T00:45:34;14.57;;;2.92;;
61638;SDS011;47544;52.484;4.658;2024-01-27T00:45:45;17.00;;;3.15;;
61638;SDS011;47544;52.484;4.658;2024-01-27T00:45:56;17.05;;;2.58;;
61638;SDS011;47544;52.484;4.658;2024-01-27T00:46:08;17.80;;;2.47;;
61638;SDS011;47544;52.484;4.658;2024-01-27T00:46:19;17.60;;;2.60;;
61638;SDS011;47544;52.484;4.658;2024-01-27T00:46:30;15.98;;;2.60;;
61638;SDS011;47544;52.484;4.658;2024-01-27T00:46:40;16.73;;;2.72;;
61638;SDS011;47544;52.484;4.658;2024-01-27T00:46:51;15.93;;;2.72;;
61638;SDS011;47544;52.484;4.658;2024-01-27T00:47:03;16.48;;;2.50;;
61638;SDS011;47544;52.484;4.658;2024-01-27T00:47:14;17.60;;;2.70;;
61638;SDS011;47544;52.484;4.658;2024-01-27T00:47:25;19.67;;;2.85;;
61638;SDS011;47544;52.484;4.658;2024-01-27T00:47:35;22.60;;;3.45;;
61638;SDS011;47544;52.484;4.658;2024-01-27T00:47:47;22.27;;;3.33;;
61638;SDS011;47544;52.484;4.658;2024-01-27T00:47:58;21.08;;;3.08;;
61638;SDS011;47544;52.484;4.658;2024-01-27T00:48:09;18.58;;;2.58;;
61638;SDS011;47544;52.484;4.658;2024-01-27T00:48:21;16.80;;;2.40;;
61638;SDS011;47544;52.484;4.658;2024-01-27T00:48:33;17.05;;;2.85;;
61638;SDS011;47544;52.484;4.658;2024-01-27T00:48:43;15.95;;;3.03;;
61638;SDS011;47544;52.484;4.658;2024-01-27T00:48:54;17.10;;;3.10;;
61638;SDS011;47544;52.484;4.658;2024-01-27T00:49:05;19.48;;;3.03;;
61638;SDS011;47544;52.484;4.658;2024-01-27T00:49:16;19.02;;;2.80;;
61638;SDS011;47544;52.484;4.658;2024-01-27T00:49:28;20.33;;;2.58;;
61638;SDS011;47544;52.484;4.658;2024-01-27T00:49:38;18.63;;;2.38;;
61638;SDS011;47544;52.484;4.658;2024-01-27T00:49:50;19.33;;;2.45;;
61638;SDS011;47544;52.484;4.658;2024-01-27T00:50:01;19.13;;;2.63;;
61638;SDS011;47544;52.484;4.658;2024-01-27T00:50:13;18.45;;;2.90;;
61638;SDS011;47544;52.484;4.658;2024-01-27T00:50:23;16.35;;;2.92;;
61638;SDS011;47544;52.484;4.658;2024-01-27T00:50:34;15.45;;;2.83;;
61638;SDS011;47544;52.484;4.658;2024-01-27T00:50:45;15.65;;;2.63;;
61638;SDS011;47544;52.484;4.658;2024-01-27T00:50:56;14.98;;;2.42;;
61638;SDS011;47544;52.484;4.658;2024-01-27T00:51:07;14.75;;;2.40;;
61638;SDS011;47544;52.484;4.658;2024-01-27T00:51:19;16.38;;;2.50;;
61638;SDS011;47544;52.484;4.658;2024-01-27T00:51:30;17.13;;;2.80;;
61638;SDS011;47544;52.484;4.658;2024-01-27T00:51:41;17.98;;;3.00;;
61638;SDS011;47544;52.484;4.658;2024-01-27T00:51:52;17.63;;;2.80;;
61638;SDS011;47544;52.484;4.658;2024-01-27T00:52:05;14.93;;;2.28;;
61638;SDS011;47544;52.484;4.658;2024-01-27T00:52:16;14.30;;;2.05;;
61638;SDS011;47544;52.484;4.658;2024-01-27T00:52:27;17.03;;;2.10;;
61638;SDS011;47544;52.484;4.658;2024-01-27T00:52:38;15.68;;;2.15;;
61638;SDS011;47544;52.484;4.658;2024-01-27T00:52:49;14.45;;;2.35;;
61638;SDS011;47544;52.484;4.658;2024-01-27T00:53:01;12.95;;;2.22;;
61638;SDS011;47544;52.484;4.658;2024-01-27T00:53:12;13.27;;;2.20;;
61638;SDS011;47544;52.484;4.658;2024-01-27T00:53:23;16.50;;;2.53;;
61638;SDS011;47544;52.484;4.658;2024-01-27T00:53:34;18.40;;;2.80;;
61638;SDS011;47544;52.484;4.658;2024-01-27T00:53:45;18.02;;;2.70;;
61638;SDS011;47544;52.484;4.658;2024-01-27T00:53:56;14.55;;;2.35;;
61638;SDS011;47544;52.484;4.658;2024-01-27T00:54:09;11.85;;;1.98;;
61638;SDS011;47544;52.484;4.658;2024-01-27T00:54:20;12.77;;;1.80;;
61638;SDS011;47544;52.484;4.658;2024-01-27T00:54:31;14.45;;;2.08;;
61638;SDS011;47544;52.484;4.658;2024-01-27T00:54:43;17.98;;;2.42;;
61638;SDS011;47544;52.484;4.658;2024-01-27T00:54:54;17.67;;;2.35;;
61638;SDS011;47544;52.484;4.658;2024-01-27T00:55:06;16.45;;;2.40;;
61638;SDS011;47544;52.484;4.658;2024-01-27T00:55:17;15.77;;;2.45;;
61638;SDS011;47544;52.484;4.658;2024-01-27T00:55:28;14.02;;;2.22;;
61638;SDS011;47544;52.484;4.658;2024-01-27T00:55:39;14.05;;;1.98;;
61638;SDS011;47544;52.484;4.658;2024-01-27T00:55:50;10.55;;;1.80;;
61638;SDS011;47544;52.484;4.658;2024-01-27T00:56:01;12.52;;;2.05;;
61638;SDS011;47544;52.484;4.658;2024-01-27T00:56:12;11.50;;;2.00;;
61638;SDS011;47544;52.484;4.658;2024-01-27T00:56:23;11.45;;;1.85;;
61638;SDS011;47544;52.484;4.658;2024-01-27T00:56:34;11.23;;;1.70;;
61638;SDS011;47544;52.484;4.658;2024-01-27T00:56:46;12.93;;;2.05;;
61638;SDS011;47544;52.484;4.658;2024-01-27T00:56:56;14.90;;;2.35;;
61638;SDS011;47544;52.484;4.658;2024-01-27T00:57:08;14.02;;;2.25;;
61638;SDS011;47544;52.484;4.658;2024-01-27T00:57:19;15.32;;;2.30;;
61638;SDS011;47544;52.484;4.658;2024-01-27T00:57:30;17.08;;;2.47;;
61638;SDS011;47544;52.484;4.658;2024-01-27T00:57:41;18.23;;;2.63;;
61638;SDS011;47544;52.484;4.658;2024-01-27T00:57:52;15.25;;;2.45;;
61638;SDS011;47544;52.484;4.658;2024-01-27T00:58:04;14.15;;;2.28;;
61638;SDS011;47544;52.484;4.658;2024-01-27T00:58:15;14.73;;;2.90;;
61638;SDS011;47544;52.484;4.658;2024-01-27T00:58:26;14.13;;;2.95;;
61638;SDS011;47544;52.484;4.658;2024-01-27T00:58:38;15.45;;;2.78;;
61638;SDS011;47544;52.484;4.658;2024-01-27T00:58:49;14.82;;;2.63;;
61638;SDS011;47544;52.484;4.658;2024-01-27T00:59:00;14.80;;;2.45;;
61638;SDS011;47544;52.484;4.658;2024-01-27T00:59:11;14.25;;;2.35;;
61638;SDS011;47544;52.484;4.658;2024-01-27T00:59:22;13.15;;;2.25;;
61638;SDS011;47544;52.484;4.658;2024-01-27T00:59:33;11.23;;;2.05;;
61638;SDS011;47544;52.484;4.658;2024-01-27T00:59:44;10.50;;;2.13;;
61638;SDS011;47544;52.484;4.658;2024-01-27T00:59:55;12.40;;;2.35;;
61638;SDS011;47544;52.484;4.658;2024-01-27T01:00:06;15.15;;;2.53;;
61638;SDS011;47544;52.484;4.658;2024-01-27T01:00:22;15.65;;;2.50;;
61638;SDS011;47544;52.484;4.658;2024-01-27T01:00:34;10.98;;;2.17;;
61638;SDS011;47544;52.484;4.658;2024-01-27T01:00:45;12.57;;;2.25;;
61638;SDS011;47544;52.484;4.658;2024-01-27T01:00:56;12.68;;;2.20;;
61638;SDS011;47544;52.484;4.658;2024-01-27T01:01:07;13.98;;;2.20;;
61638;SDS011;47544;52.484;4.658;2024-01-27T01:01:17;12.70;;;2.30;;
61638;SDS011;47544;52.484;4.658;2024-01-27T01:01:28;14.88;;;2.50;;
61638;SDS011;47544;52.484;4.658;2024-01-27T01:01:39;14.38;;;2.45;;
61638;SDS011;47544;52.484;4.658;2024-01-27T01:01:51;15.97;;;2.50;;
61638;SDS011;47544;52.484;4.658;2024-01-27T01:02:02;15.20;;;2.50;;
61638;SDS011;47544;52.484;4.658;2024-01-27T01:02:17;11.60;;;2.33;;
61638;SDS011;47544;52.484;4.658;2024-01-27T01:02:28;9.48;;;1.85;;
61638;SDS011;47544;52.484;4.658;2024-01-27T01:02:39;8.68;;;1.70;;
61638;SDS011;47544;52.484;4.658;2024-01-27T01:02:51;8.68;;;1.70;;
61638;SDS011;47544;52.484;4.658;2024-01-27T01:03:02;12.53;;;1.93;;
61638;SDS011;47544;52.484;4.658;2024-01-27T01:03:13;15.95;;;2.22;;
61638;SDS011;47544;52.484;4.658;2024-01-27T01:03:24;15.90;;;2.30;;
61638;SDS011;47544;52.484;4.658;2024-01-27T01:03:35;12.80;;;1.88;;
61638;SDS011;47544;52.484;4.658;2024-01-27T01:03:50;9.52;;;1.73;;
61638;SDS011;47544;52.484;4.658;2024-01-27T01:04:00;12.75;;;2.08;;
61638;SDS011;47544;52.484;4.658;2024-01-27T01:04:11;14.43;;;2.25;;
61638;SDS011;47544;52.484;4.658;2024-01-27T01:04:22;16.15;;;2.20;;
61638;SDS011;47544;52.484;4.658;2024-01-27T01:04:33;14.67;;;1.97;;
61638;SDS011;47544;52.484;4.658;2024-01-27T01:04:44;16.47;;;2.10;;
61638;SDS011;47544;52.484;4.658;2024-01-27T01:04:55;13.25;;;2.28;;
61638;SDS011;47544;52.484;4.658;2024-01-27T01:05:06;13.73;;;2.35;;
61638;SDS011;47544;52.484;4.658;2024-01-27T01:05:18;13.80;;;2.22;;
61638;SDS011;47544;52.484;4.658;2024-01-27T01:05:29;15.47;;;2.47;;
61638;SDS011;47544;52.484;4.658;2024-01-27T01:05:40;17.17;;;2.65;;
61638;SDS011;47544;52.484;4.658;2024-01-27T01:05:51;16.65;;;2.55;;
61638;SDS011;47544;52.484;4.658;2024-01-27T01:06:02;14.38;;;2.20;;
61638;SDS011;47544;52.484;4.658;2024-01-27T01:06:13;12.43;;;2.10;;
61638;SDS011;47544;52.484;4.658;2024-01-27T01:06:24;10.98;;;2.03;;
61638;SDS011;47544;52.484;4.658;2024-01-27T01:06:35;11.33;;;1.97;;
61638;SDS011;47544;52.484;4.658;2024-01-27T01:06:49;12.80;;;2.10;;
61638;SDS011;47544;52.484;4.658;2024-01-27T01:07:00;15.57;;;2.38;;
61638;SDS011;47544;52.484;4.658;2024-01-27T01:07:12;17.75;;;2.90;;
61638;SDS011;47544;52.484;4.658;2024-01-27T01:07:22;18.52;;;2.97;;
61638;SDS011;47544;52.484;4.658;2024-01-27T01:07:33;16.83;;;2.85;;